createdAt,value
2017-03-02T10:08:40.036Z,928.41
2017-03-02T10:09:09.957Z,928.44
2017-03-02T10:09:44.006Z,928.45
2017-03-02T10:10:15.892Z,928.47
2017-03-02T10:10:45.740Z,928.45
2017-03-02T10:11:16.825Z,928.48
2017-03-02T10:11:51.647Z,928.48
2017-03-02T10:12:26.489Z,928.46
2017-03-02T10:12:57.614Z,928.51
2017-03-02T10:13:27.935Z,928.44
2017-03-02T10:13:57.915Z,928.45
2017-03-02T10:14:27.351Z,928.51
2017-03-02T10:14:56.012Z,928.53
2017-03-02T10:15:25.103Z,928.51
2017-03-02T10:15:53.796Z,928.55
2017-03-02T10:16:21.981Z,928.53
2017-03-02T10:16:51.422Z,928.54
2017-03-02T10:17:19.591Z,928.52
2017-03-02T10:17:47.887Z,928.5
2017-03-02T10:18:16.165Z,928.52
2017-03-02T10:18:44.870Z,928.53
2017-03-02T10:19:13.076Z,928.56
2017-03-02T10:19:41.248Z,928.55
2017-03-02T10:20:09.352Z,928.58
2017-03-02T10:20:37.396Z,928.57
2017-03-02T10:21:05.735Z,928.58
2017-03-02T10:21:34.093Z,928.57
2017-03-02T10:22:03.875Z,928.56
2017-03-02T10:22:32.278Z,928.61
2017-03-02T10:23:00.449Z,928.6
2017-03-02T10:23:28.873Z,928.57
2017-03-02T10:23:59.053Z,928.57
2017-03-02T10:24:34.644Z,928.56
2017-03-02T10:25:03.175Z,928.56
2017-03-02T10:25:32.634Z,928.6
2017-03-02T10:26:04.260Z,928.63
2017-03-02T10:26:32.578Z,928.7
2017-03-02T10:27:00.897Z,928.58
2017-03-02T10:27:28.934Z,928.61
2017-03-02T10:27:57.059Z,928.59
2017-03-02T10:28:25.244Z,928.62
2017-03-02T10:28:53.621Z,928.59
2017-03-02T10:29:21.860Z,928.62
2017-03-02T10:29:50.298Z,928.59
2017-03-02T10:30:18.612Z,928.58
2017-03-02T10:30:46.905Z,928.6
2017-03-02T10:31:15.123Z,928.61
2017-03-02T10:31:43.915Z,928.6
2017-03-02T10:32:12.069Z,928.61
2017-03-02T10:32:40.278Z,928.64
2017-03-02T10:33:08.508Z,928.65
2017-03-02T10:33:36.693Z,928.66
2017-03-02T10:34:05.016Z,928.69
2017-03-02T10:34:33.313Z,928.7
2017-03-02T10:35:01.647Z,928.71
2017-03-02T10:35:29.738Z,928.75
2017-03-02T10:35:57.865Z,928.73
2017-03-02T10:36:26.082Z,928.75
2017-03-02T10:36:54.168Z,928.75
2017-03-02T10:37:22.106Z,928.75
2017-03-02T10:37:50.327Z,928.75
2017-03-02T10:38:18.628Z,928.76
2017-03-02T10:38:46.942Z,928.74
2017-03-02T10:39:15.360Z,928.76
2017-03-02T10:39:45.483Z,928.81
2017-03-02T10:40:14.746Z,928.8
2017-03-02T10:40:42.949Z,928.84
2017-03-02T10:41:11.609Z,928.85
2017-03-02T10:41:41.164Z,928.82
2017-03-02T10:42:09.469Z,928.79
2017-03-02T10:42:37.759Z,928.85
2017-03-02T10:43:07.210Z,928.86
2017-03-02T10:43:35.445Z,928.82
2017-03-02T10:44:03.614Z,928.84
2017-03-02T10:44:31.829Z,928.86
2017-03-02T10:45:00.283Z,928.88
2017-03-02T10:45:28.237Z,928.85
2017-03-02T10:45:56.478Z,928.87
2017-03-02T10:46:24.796Z,928.89
2017-03-02T10:46:52.908Z,928.89
2017-03-02T10:47:21.101Z,928.93
2017-03-02T10:47:49.374Z,928.92
2017-03-02T10:48:17.545Z,928.94
2017-03-02T10:48:45.923Z,928.97
2017-03-02T10:49:14.297Z,928.96
2017-03-02T10:49:42.606Z,928.99
2017-03-02T10:50:10.918Z,929.01
2017-03-02T10:50:39.290Z,929
2017-03-02T10:51:07.602Z,928.89
2017-03-02T10:51:35.688Z,928.96
2017-03-02T10:52:04.027Z,928.96
2017-03-02T10:52:32.564Z,928.96
2017-03-02T10:53:00.770Z,929
2017-03-02T10:53:29.283Z,929.06
2017-03-02T10:53:57.733Z,929.05
2017-03-02T10:54:26.165Z,929.04
2017-03-02T10:54:54.181Z,929.01
2017-03-02T10:55:22.522Z,929
2017-03-02T10:55:50.824Z,929.05
2017-03-02T10:56:19.092Z,929.04
2017-03-02T10:56:47.389Z,929.19
2017-03-02T10:57:15.608Z,929.03
2017-03-02T10:57:43.675Z,929.09
2017-03-02T10:58:11.829Z,929.14
2017-03-02T10:58:40.132Z,929.21
2017-03-02T10:59:08.409Z,929.37
2017-03-02T10:59:36.662Z,929.33
2017-03-02T11:00:04.887Z,929.37
2017-03-02T11:00:32.896Z,929.29
2017-03-02T11:01:01.127Z,929.26
2017-03-02T11:01:29.421Z,929.38
2017-03-02T11:01:57.634Z,929.3
2017-03-02T11:02:25.738Z,929.28
2017-03-02T11:02:53.946Z,929.26
2017-03-02T11:03:22.144Z,929.18
2017-03-02T11:03:50.371Z,929.11
2017-03-02T11:04:18.551Z,929.35
2017-03-02T11:04:46.735Z,929.37
2017-03-02T11:05:14.866Z,929.29
2017-03-02T11:05:43.079Z,929.3
2017-03-02T11:06:11.243Z,929.31
2017-03-02T11:06:39.464Z,929.3
2017-03-02T11:07:07.616Z,929.19
2017-03-02T11:07:35.742Z,929.2
2017-03-02T11:08:04.153Z,929.18
2017-03-02T11:08:32.273Z,929.17
2017-03-02T11:09:00.660Z,929.17
2017-03-02T11:09:28.845Z,929.17
2017-03-02T11:09:57.055Z,929.16
2017-03-02T11:10:25.369Z,929.15
2017-03-02T11:10:53.634Z,929.14
2017-03-02T11:11:21.769Z,929.14
2017-03-02T11:11:49.974Z,929.22
2017-03-02T11:12:18.268Z,929.23
2017-03-02T11:12:46.460Z,929.41
2017-03-02T11:13:14.678Z,929.43
2017-03-02T11:13:42.819Z,929.31
2017-03-02T11:14:11.118Z,929.23
2017-03-02T11:14:39.259Z,929.15
2017-03-02T11:15:08.006Z,929.14
2017-03-02T11:15:36.200Z,929.13
2017-03-02T11:16:04.338Z,929.09
2017-03-02T11:16:32.370Z,929.16
2017-03-02T11:17:00.577Z,929.12
2017-03-02T11:17:28.856Z,929.13
2017-03-02T11:17:57.156Z,929.13
2017-03-02T11:18:25.366Z,929.15
2017-03-02T11:18:53.717Z,929.14
2017-03-02T11:19:21.876Z,929.21
2017-03-02T11:19:49.902Z,929.2
2017-03-02T11:20:18.142Z,929.19
2017-03-02T11:20:46.129Z,929.2
2017-03-02T11:21:14.107Z,929.18
2017-03-02T11:21:42.295Z,929.17
2017-03-02T11:22:10.545Z,929.17
2017-03-02T11:22:38.772Z,929.16
2017-03-02T11:23:06.962Z,929.16
2017-03-02T11:23:35.023Z,929.16
2017-03-02T11:24:03.152Z,929.15
2017-03-02T11:24:31.483Z,929.18
2017-03-02T11:24:59.743Z,929.17
2017-03-02T11:25:28.024Z,929.17
2017-03-02T11:25:56.102Z,929.17
2017-03-02T11:26:24.589Z,929.17
2017-03-02T11:26:52.896Z,929.16
2017-03-02T11:27:21.076Z,929.17
2017-03-02T11:27:49.109Z,929.16
2017-03-02T11:28:17.348Z,929.2
2017-03-02T11:28:45.471Z,929.21
2017-03-02T11:29:13.763Z,929.21
2017-03-02T11:29:41.904Z,929.26
2017-03-02T11:30:10.080Z,929.25
2017-03-02T11:30:38.324Z,929.26
2017-03-02T11:31:07.951Z,929.23
2017-03-02T11:31:36.853Z,929.21
2017-03-02T11:32:05.107Z,929.29
2017-03-02T11:32:33.177Z,929.25
2017-03-02T11:33:01.281Z,929.27
2017-03-02T11:33:29.592Z,929.25
2017-03-02T11:33:57.718Z,929.29
2017-03-02T11:34:25.894Z,929.28
2017-03-02T11:34:54.084Z,929.27
2017-03-02T11:35:22.288Z,929.31
2017-03-02T11:35:50.593Z,929.28
2017-03-02T11:36:18.649Z,929.29
2017-03-02T11:36:46.867Z,929.22
2017-03-02T11:37:15.102Z,929.23
2017-03-02T11:37:43.209Z,929.24
2017-03-02T11:38:11.404Z,929.24
2017-03-02T11:38:39.520Z,929.26
2017-03-02T11:39:07.704Z,929.25
2017-03-02T11:39:35.925Z,929.24
2017-03-02T11:40:04.113Z,929.28
2017-03-02T11:40:32.229Z,929.26
2017-03-02T11:41:00.472Z,929.31
2017-03-02T11:41:28.703Z,929.26
2017-03-02T11:41:56.898Z,929.31
2017-03-02T11:42:25.113Z,929.32
2017-03-02T11:42:53.254Z,929.33
2017-03-02T11:43:22.555Z,929.3
2017-03-02T11:43:51.011Z,929.31
2017-03-02T11:44:19.412Z,929.37
2017-03-02T11:44:47.850Z,929.35
2017-03-02T11:45:16.013Z,929.37
2017-03-02T11:45:44.201Z,929.36
2017-03-02T11:46:12.288Z,929.41
2017-03-02T11:46:40.413Z,929.4
2017-03-02T11:47:08.624Z,929.42
2017-03-02T11:47:36.824Z,929.4
2017-03-02T11:48:05.584Z,929.48
2017-03-02T11:48:35.831Z,929.43
2017-03-02T11:49:03.944Z,929.45
2017-03-02T11:49:32.407Z,929.43
2017-03-02T11:50:00.669Z,929.45
2017-03-02T11:50:28.997Z,929.43
2017-03-02T11:50:57.188Z,929.42
2017-03-02T11:51:25.446Z,929.43
2017-03-02T11:51:53.618Z,929.44
2017-03-02T11:52:21.821Z,929.43
2017-03-02T11:52:50.092Z,929.47
2017-03-02T11:53:18.351Z,929.48
2017-03-02T11:53:46.616Z,929.5
2017-03-02T11:54:14.738Z,929.54
2017-03-02T11:54:42.933Z,929.47
2017-03-02T11:55:11.093Z,929.48
2017-03-02T11:55:39.319Z,929.48
2017-03-02T11:56:07.775Z,929.55
2017-03-02T11:56:35.907Z,929.57
2017-03-02T11:57:04.127Z,929.58
2017-03-02T11:57:32.419Z,929.6
2017-03-02T11:58:00.386Z,929.65
2017-03-02T11:58:28.420Z,929.65
2017-03-02T11:58:56.677Z,929.66
2017-03-02T11:59:25.019Z,929.66
2017-03-02T11:59:53.133Z,929.72
2017-03-02T12:00:21.393Z,929.76
2017-03-02T12:00:49.677Z,929.7
2017-03-02T12:01:17.868Z,929.68
2017-03-02T12:01:45.999Z,929.73
2017-03-02T12:02:14.207Z,929.71
2017-03-02T12:02:43.397Z,929.82
2017-03-02T12:03:11.816Z,929.78
2017-03-02T12:03:40.103Z,929.63
2017-03-02T12:04:08.435Z,929.74
2017-03-02T12:04:36.719Z,929.81
2017-03-02T12:05:04.793Z,929.79
2017-03-02T12:05:33.473Z,929.78
2017-03-02T12:06:01.787Z,929.8
2017-03-02T12:06:30.635Z,929.8
2017-03-02T12:06:58.895Z,929.78
2017-03-02T12:07:27.190Z,929.82
2017-03-02T12:07:55.276Z,929.79
2017-03-02T12:08:24.869Z,929.75
2017-03-02T12:08:53.100Z,929.75
2017-03-02T12:09:21.356Z,929.79
2017-03-02T12:09:49.538Z,929.83
2017-03-02T12:10:17.871Z,929.82
2017-03-02T12:10:46.071Z,929.79
2017-03-02T12:11:14.229Z,929.79
2017-03-02T12:11:42.419Z,929.79
2017-03-02T12:12:10.297Z,929.77
2017-03-02T12:12:38.552Z,929.87
2017-03-02T12:13:06.635Z,929.89
2017-03-02T12:13:34.828Z,929.9
2017-03-02T12:14:02.865Z,929.91
2017-03-02T12:14:31.229Z,929.95
2017-03-02T12:14:59.471Z,929.99
2017-03-02T12:15:27.646Z,930.01
2017-03-02T12:15:55.765Z,929.97
2017-03-02T12:16:24.057Z,929.92
2017-03-02T12:16:52.448Z,929.93
2017-03-02T12:17:20.794Z,929.96
2017-03-02T12:17:49.170Z,929.91
2017-03-02T12:18:17.353Z,929.94
2017-03-02T12:18:45.471Z,929.91
2017-03-02T12:19:13.660Z,929.94
2017-03-02T12:19:42.043Z,929.92
2017-03-02T12:20:10.247Z,929.87
2017-03-02T12:20:38.436Z,929.82
2017-03-02T12:21:06.720Z,929.84
2017-03-02T12:21:34.855Z,929.74
2017-03-02T12:22:02.948Z,929.83
2017-03-02T12:22:31.118Z,929.81
2017-03-02T12:22:59.375Z,929.9
2017-03-02T12:23:27.581Z,929.85
2017-03-02T12:23:55.688Z,929.88
2017-03-02T12:24:23.999Z,929.78
2017-03-02T12:24:52.256Z,929.77
2017-03-02T12:25:20.489Z,929.8
2017-03-02T12:25:48.649Z,929.8
2017-03-02T12:26:16.583Z,929.63
2017-03-02T12:26:44.758Z,929.82
2017-03-02T12:27:12.972Z,929.84
2017-03-02T12:27:41.261Z,929.82
2017-03-02T12:28:09.541Z,929.87
2017-03-02T12:28:37.834Z,929.85
2017-03-02T12:29:06.104Z,929.86
2017-03-02T12:29:34.691Z,929.87
2017-03-02T12:30:02.998Z,929.88
2017-03-02T12:30:31.210Z,929.86
2017-03-02T12:30:59.292Z,929.76
2017-03-02T12:31:27.482Z,929.81
2017-03-02T12:31:55.704Z,929.83
2017-03-02T12:32:24.002Z,929.83
2017-03-02T12:32:51.988Z,929.85
2017-03-02T12:33:20.121Z,929.86
2017-03-02T12:33:50.033Z,929.8
2017-03-02T12:34:26.377Z,929.83
2017-03-02T12:35:04.341Z,929.81
2017-03-02T12:35:41.253Z,929.79
2017-03-02T12:36:09.424Z,929.7
2017-03-02T12:36:37.548Z,929.68
2017-03-02T12:37:05.637Z,929.74
2017-03-02T12:37:34.659Z,929.76
2017-03-02T12:38:02.927Z,929.63
2017-03-02T12:38:31.242Z,929.65
2017-03-02T12:38:59.434Z,929.65
2017-03-02T12:39:27.642Z,929.6
2017-03-02T12:39:56.001Z,929.49
2017-03-02T12:40:24.027Z,929.7
2017-03-02T12:40:52.172Z,929.64
2017-03-02T12:41:20.511Z,929.73
2017-03-02T12:41:48.800Z,929.7
2017-03-02T12:42:16.998Z,929.67
2017-03-02T12:42:45.269Z,929.71
2017-03-02T12:43:13.467Z,929.8
2017-03-02T12:43:41.633Z,929.75
2017-03-02T12:44:09.957Z,929.61
2017-03-02T12:44:38.232Z,929.64
2017-03-02T12:45:06.779Z,929.65
2017-03-02T12:45:34.988Z,929.65
2017-03-02T12:46:03.189Z,929.69
2017-03-02T12:46:31.372Z,929.69
2017-03-02T12:46:59.649Z,929.67
2017-03-02T12:47:27.998Z,929.71
2017-03-02T12:47:56.252Z,929.65
2017-03-02T12:48:24.428Z,929.64
2017-03-02T12:48:52.708Z,929.53
2017-03-02T12:49:20.975Z,929.63
2017-03-02T12:49:49.249Z,929.73
2017-03-02T12:50:17.520Z,929.76
2017-03-02T12:50:45.710Z,929.81
2017-03-02T12:51:14.008Z,929.81
2017-03-02T12:51:42.313Z,929.78
2017-03-02T12:52:10.345Z,929.79
2017-03-02T12:52:38.397Z,929.72
2017-03-02T12:53:06.621Z,929.74
2017-03-02T12:53:34.717Z,929.78
2017-03-02T12:54:03.141Z,929.7
2017-03-02T12:54:31.225Z,929.86
2017-03-02T12:54:59.411Z,929.91
2017-03-02T12:55:27.545Z,929.84
2017-03-02T12:55:55.730Z,929.83
2017-03-02T12:56:23.713Z,929.84
2017-03-02T12:56:52.000Z,929.79
2017-03-02T12:57:20.079Z,929.98
2017-03-02T12:57:48.366Z,930.02
2017-03-02T12:58:16.687Z,930
2017-03-02T12:58:44.878Z,929.97
2017-03-02T12:59:14.279Z,929.93
2017-03-02T12:59:43.794Z,929.9
2017-03-02T13:00:11.904Z,929.94
2017-03-02T13:00:40.077Z,929.89
2017-03-02T13:01:08.211Z,929.94
2017-03-02T13:01:36.398Z,929.97
2017-03-02T13:02:04.503Z,929.97
2017-03-02T13:02:32.690Z,929.9
2017-03-02T13:03:00.975Z,930
2017-03-02T13:03:29.222Z,930.02
2017-03-02T13:03:57.508Z,930.05
2017-03-02T13:04:25.712Z,930.03
2017-03-02T13:04:54.096Z,930.09
2017-03-02T13:05:22.373Z,930.11
2017-03-02T13:05:51.233Z,929.99
2017-03-02T13:06:19.413Z,930
2017-03-02T13:06:47.583Z,929.99
2017-03-02T13:07:15.812Z,930.04
2017-03-02T13:07:44.479Z,930.09
2017-03-02T13:08:12.793Z,930.18
2017-03-02T13:08:42.194Z,930.2
2017-03-02T13:09:10.583Z,930.27
2017-03-02T13:09:38.878Z,930.27
2017-03-02T13:10:07.534Z,930.3
2017-03-02T13:10:36.093Z,930.35
2017-03-02T13:11:04.784Z,930.36
2017-03-02T13:11:33.479Z,930.33
2017-03-02T13:12:02.293Z,930.25
2017-03-02T13:12:30.568Z,930.12
2017-03-02T13:12:58.728Z,930.17
2017-03-02T13:13:26.729Z,930.22
2017-03-02T13:13:54.767Z,930.2
2017-03-02T13:14:22.928Z,930.14
2017-03-02T13:14:51.236Z,930.33
2017-03-02T13:15:19.506Z,930.36
2017-03-02T13:15:47.753Z,930.26
2017-03-02T13:16:16.039Z,930.46
2017-03-02T13:16:44.292Z,930.33
2017-03-02T13:17:12.562Z,930.33
2017-03-02T13:17:40.874Z,930.38
2017-03-02T13:18:09.123Z,930.34
2017-03-02T13:18:37.342Z,930.34
2017-03-02T13:19:05.550Z,930.37
2017-03-02T13:19:33.855Z,930.4
2017-03-02T13:20:02.270Z,930.4
2017-03-02T13:20:30.353Z,930.43
2017-03-02T13:20:58.663Z,930.44
2017-03-02T13:21:26.991Z,930.46
2017-03-02T13:21:55.248Z,930.56
2017-03-02T13:22:23.350Z,930.48
2017-03-02T13:22:51.638Z,930.58
2017-03-02T13:23:19.754Z,930.58
2017-03-02T13:23:47.902Z,930.67
2017-03-02T13:24:16.010Z,930.53
2017-03-02T13:24:44.181Z,930.55
2017-03-02T13:25:12.469Z,930.58
2017-03-02T13:25:40.672Z,930.62
2017-03-02T13:26:08.854Z,930.65
2017-03-02T13:26:37.018Z,930.64
2017-03-02T13:27:05.240Z,930.6
2017-03-02T13:27:33.395Z,930.63
2017-03-02T13:28:01.651Z,930.75
2017-03-02T13:28:29.831Z,930.65
2017-03-02T13:28:57.746Z,930.54
2017-03-02T13:29:25.872Z,930.4
2017-03-02T13:29:54.077Z,930.37
2017-03-02T13:30:22.312Z,930.32
2017-03-02T13:30:50.512Z,930.36
2017-03-02T13:31:18.798Z,930.33
2017-03-02T13:31:47.037Z,930.35
2017-03-02T13:32:15.264Z,930.28
2017-03-02T13:32:43.455Z,930.22
2017-03-02T13:33:11.687Z,930.13
2017-03-02T13:33:39.843Z,930.1
2017-03-02T13:34:08.035Z,930.07
2017-03-02T13:34:36.214Z,930.07
2017-03-02T13:35:04.348Z,930.12
2017-03-02T13:35:32.346Z,929.98
2017-03-02T13:36:00.491Z,930.11
2017-03-02T13:36:28.823Z,930.11
2017-03-02T13:36:57.033Z,930.22
2017-03-02T13:37:25.074Z,930.15
2017-03-02T13:37:53.127Z,930.11
2017-03-02T13:38:21.272Z,930.1
2017-03-02T13:38:49.567Z,930.11
2017-03-02T13:39:17.616Z,930.07
2017-03-02T13:39:45.774Z,930.1
2017-03-02T13:40:14.196Z,930.02
2017-03-02T13:40:42.241Z,930.07
2017-03-02T13:41:10.515Z,930.28
2017-03-02T13:41:38.750Z,930.32
2017-03-02T13:42:06.969Z,930.3
2017-03-02T13:42:35.119Z,930.38
2017-03-02T13:43:03.269Z,930.49
2017-03-02T13:43:31.431Z,930.55
2017-03-02T13:43:59.638Z,930.57
2017-03-02T13:44:27.819Z,930.59
2017-03-02T13:44:56.003Z,930.47
2017-03-02T13:45:24.240Z,930.35
2017-03-02T13:45:52.464Z,930.21
2017-03-02T13:46:20.599Z,930.19
2017-03-02T13:46:48.770Z,930.17
2017-03-02T13:47:16.869Z,930.2
2017-03-02T13:47:45.020Z,930.16
2017-03-02T13:48:13.255Z,930.22
2017-03-02T13:48:41.502Z,930.17
2017-03-02T13:49:09.745Z,930.12
2017-03-02T13:49:38.023Z,930.07
2017-03-02T13:50:06.129Z,930.05
2017-03-02T13:50:34.371Z,930.05
2017-03-02T13:51:02.661Z,930.03
2017-03-02T13:51:30.910Z,930.15
2017-03-02T13:51:59.137Z,930.22
2017-03-02T13:52:27.351Z,930.25
2017-03-02T13:52:55.380Z,930.26
2017-03-02T13:53:23.555Z,930.18
2017-03-02T13:53:51.782Z,930.25
2017-03-02T13:54:19.974Z,930.11
2017-03-02T13:54:48.095Z,930.01
2017-03-02T13:55:16.213Z,929.93
2017-03-02T13:55:44.408Z,929.9
2017-03-02T13:56:12.638Z,929.85
2017-03-02T13:56:40.992Z,929.87
2017-03-02T13:57:09.215Z,929.84
2017-03-02T13:57:37.505Z,929.81
2017-03-02T13:58:05.710Z,929.78
2017-03-02T13:58:33.812Z,929.83
2017-03-02T13:59:01.940Z,929.91
2017-03-02T13:59:30.143Z,930.05
2017-03-02T13:59:58.390Z,930.06
2017-03-02T14:00:26.514Z,930.08
2017-03-02T14:00:54.616Z,930.09
2017-03-02T14:01:22.864Z,930.05
2017-03-02T14:01:51.121Z,930.1
2017-03-02T14:02:19.236Z,930.15
2017-03-02T14:02:47.518Z,930.14
2017-03-02T14:03:15.838Z,930.09
2017-03-02T14:03:44.096Z,930.16
2017-03-02T14:04:12.321Z,930.18
2017-03-02T14:04:40.574Z,930.18
2017-03-02T14:05:08.923Z,930.19
2017-03-02T14:05:37.013Z,930.22
2017-03-02T14:06:05.116Z,930.31
2017-03-02T14:06:33.336Z,930.26
2017-03-02T14:07:01.497Z,930.31
2017-03-02T14:07:29.893Z,930.31
2017-03-02T14:07:57.970Z,930.26
2017-03-02T14:08:26.063Z,930.28
2017-03-02T14:08:54.192Z,930.32
2017-03-02T14:09:22.454Z,930.24
2017-03-02T14:09:50.676Z,930.26
2017-03-02T14:10:18.968Z,930.23
2017-03-02T14:10:47.120Z,930.21
2017-03-02T14:11:15.326Z,930.2
2017-03-02T14:11:43.620Z,930.08
2017-03-02T14:12:11.950Z,930.21
2017-03-02T14:12:40.094Z,930.21
2017-03-02T14:13:08.371Z,930.17
2017-03-02T14:13:36.694Z,930.09
2017-03-02T14:14:04.936Z,930.35
2017-03-02T14:14:32.999Z,930.32
2017-03-02T14:15:01.140Z,930.1
2017-03-02T14:15:29.358Z,930.14
2017-03-02T14:15:57.553Z,930.01
2017-03-02T14:16:25.791Z,930.13
2017-03-02T14:16:53.920Z,930.02
2017-03-02T14:17:22.154Z,930.2
2017-03-02T14:17:50.420Z,930.2
2017-03-02T14:18:18.759Z,930.34
2017-03-02T14:18:47.051Z,930.26
2017-03-02T14:19:15.065Z,930.18
2017-03-02T14:19:43.175Z,930.07
2017-03-02T14:20:11.278Z,930.2
2017-03-02T14:20:39.467Z,930.19
2017-03-02T14:21:07.803Z,930.08
2017-03-02T14:21:35.985Z,930.19
2017-03-02T14:22:04.264Z,930.28
2017-03-02T14:22:32.485Z,930.17
2017-03-02T14:23:00.826Z,930.31
2017-03-02T14:23:29.218Z,930.18
2017-03-02T14:23:57.443Z,930.14
2017-03-02T14:24:25.819Z,930.29
2017-03-02T14:24:54.072Z,930.24
2017-03-02T14:25:22.223Z,930.21
2017-03-02T14:25:50.327Z,930.27
2017-03-02T14:26:18.392Z,930.28
2017-03-02T14:26:46.673Z,930.26
2017-03-02T14:27:14.691Z,930.19
2017-03-02T14:27:42.991Z,930.26
2017-03-02T14:28:11.203Z,930.25
2017-03-02T14:28:39.386Z,930.22
2017-03-02T14:29:07.844Z,930.25
2017-03-02T14:29:36.186Z,930.26
2017-03-02T14:30:04.390Z,930.28
2017-03-02T14:30:32.824Z,930.21
2017-03-02T14:31:01.032Z,930.18
2017-03-02T14:31:29.142Z,930.19
2017-03-02T14:31:57.577Z,930.23
2017-03-02T14:32:25.664Z,930.18
2017-03-02T14:32:53.942Z,930.18
2017-03-02T14:33:22.168Z,930.14
2017-03-02T14:33:50.436Z,930.21
2017-03-02T14:34:18.679Z,930.15
2017-03-02T14:34:46.837Z,930.13
2017-03-02T14:35:15.162Z,930.15
2017-03-02T14:35:43.338Z,930.13
2017-03-02T14:36:11.569Z,930.24
2017-03-02T14:36:39.822Z,930.28
2017-03-02T14:37:08.325Z,930.34
2017-03-02T14:37:36.686Z,930.35
2017-03-02T14:38:04.716Z,930.29
2017-03-02T14:38:32.792Z,930.26
2017-03-02T14:39:00.939Z,930.32
2017-03-02T14:39:29.184Z,930.44
2017-03-02T14:39:57.303Z,930.38
2017-03-02T14:40:25.499Z,930.4
2017-03-02T14:40:53.650Z,930.4
2017-03-02T14:41:21.969Z,930.31
2017-03-02T14:41:50.192Z,930.51
2017-03-02T14:42:18.742Z,930.39
2017-03-02T14:42:46.852Z,930.45
2017-03-02T14:43:15.171Z,930.36
2017-03-02T14:43:43.385Z,930.35
2017-03-02T14:44:11.608Z,930.38
2017-03-02T14:44:39.673Z,930.3
2017-03-02T14:45:07.988Z,930.34
2017-03-02T14:45:36.240Z,930.35
2017-03-02T14:46:04.476Z,930.3
2017-03-02T14:46:32.626Z,930.36
2017-03-02T14:47:00.825Z,930.34
2017-03-02T14:47:29.139Z,930.36
2017-03-02T14:47:57.318Z,930.3
2017-03-02T14:48:25.604Z,930.22
2017-03-02T14:48:53.741Z,930.3
2017-03-02T14:49:21.933Z,930.39
2017-03-02T14:49:50.248Z,930.61
2017-03-02T14:50:18.527Z,930.63
2017-03-02T14:50:46.752Z,930.55
2017-03-02T14:51:15.249Z,930.52
2017-03-02T14:51:43.461Z,930.34
2017-03-02T14:52:11.710Z,930.28
2017-03-02T14:52:39.902Z,930.43
2017-03-02T14:53:08.227Z,930.41
2017-03-02T14:53:36.417Z,930.43
2017-03-02T14:54:04.674Z,930.33
2017-03-02T14:54:32.869Z,930.28
2017-03-02T14:55:01.316Z,930.26
2017-03-02T14:55:31.805Z,930.31
2017-03-02T14:56:00.066Z,930.31
2017-03-02T14:56:28.346Z,930.22
2017-03-02T14:56:56.380Z,930.25
2017-03-02T14:57:24.778Z,930.18
2017-03-02T14:57:53.016Z,930.19
2017-03-02T14:58:21.363Z,930.14
2017-03-02T14:58:49.456Z,930.17
2017-03-02T14:59:17.778Z,930.06
2017-03-02T14:59:46.162Z,930.13
2017-03-02T15:00:14.365Z,930.13
2017-03-02T15:00:42.539Z,930.06
2017-03-02T15:01:10.772Z,930.01
2017-03-02T15:01:39.035Z,930.05
2017-03-02T15:02:07.335Z,930.02
2017-03-02T15:02:35.607Z,930.01
2017-03-02T15:03:03.612Z,930.08
2017-03-02T15:03:31.885Z,929.97
2017-03-02T15:04:00.090Z,930.01
2017-03-02T15:04:28.380Z,929.98
2017-03-02T15:04:56.623Z,929.98
2017-03-02T15:05:24.730Z,929.98
2017-03-02T15:05:52.856Z,930.06
2017-03-02T15:06:21.068Z,930.01
2017-03-02T15:06:49.315Z,930
2017-03-02T15:07:17.493Z,929.99
2017-03-02T15:07:45.546Z,930.02
2017-03-02T15:08:13.884Z,929.94
2017-03-02T15:08:42.187Z,930.03
2017-03-02T15:09:10.343Z,930.07
2017-03-02T15:09:38.537Z,929.93
2017-03-02T15:10:06.724Z,929.94
2017-03-02T15:10:34.818Z,929.91
2017-03-02T15:11:03.015Z,930.03
2017-03-02T15:11:31.283Z,930.1
2017-03-02T15:11:59.615Z,930.14
2017-03-02T15:12:27.733Z,930.16
2017-03-02T15:12:55.748Z,930.21
2017-03-02T15:13:23.855Z,930.25
2017-03-02T15:13:51.967Z,930.21
2017-03-02T15:14:20.268Z,930.27
2017-03-02T15:14:48.467Z,930.23
2017-03-02T15:15:16.633Z,930.26
2017-03-02T15:15:44.938Z,930.19
2017-03-02T15:16:13.406Z,930.2
2017-03-02T15:16:41.608Z,930.14
2017-03-02T15:17:09.823Z,930.08
2017-03-02T15:17:38.134Z,930.16
2017-03-02T15:18:06.476Z,930.27
2017-03-02T15:18:34.762Z,930.33
2017-03-02T15:19:02.935Z,930.2
2017-03-02T15:19:31.105Z,930.16
2017-03-02T15:19:59.282Z,930.13
2017-03-02T15:20:27.508Z,930.05
2017-03-02T15:20:55.779Z,930.04
2017-03-02T15:21:24.294Z,929.97
2017-03-02T15:21:52.956Z,929.94
2017-03-02T15:22:21.205Z,929.85
2017-03-02T15:22:50.116Z,929.86
2017-03-02T15:23:18.297Z,929.76
2017-03-02T15:23:46.525Z,929.69
2017-03-02T15:24:14.840Z,929.54
2017-03-02T15:24:42.976Z,929.51
2017-03-02T15:25:11.190Z,929.58
2017-03-02T15:25:39.304Z,929.59
2017-03-02T15:26:07.457Z,929.76
2017-03-02T15:26:35.651Z,929.75
2017-03-02T15:27:03.933Z,929.74
2017-03-02T15:27:32.288Z,929.8
2017-03-02T15:28:00.467Z,929.8
2017-03-02T15:28:28.592Z,929.76
2017-03-02T15:28:56.681Z,929.81
2017-03-02T15:29:24.601Z,929.74
2017-03-02T15:29:52.853Z,929.5
2017-03-02T15:30:21.058Z,929.62
2017-03-02T15:30:49.444Z,929.62
2017-03-02T15:31:17.879Z,929.52
2017-03-02T15:31:45.995Z,929.32
2017-03-02T15:32:14.382Z,929.2
2017-03-02T15:32:42.841Z,929.17
2017-03-02T15:33:11.155Z,929.2
2017-03-02T15:33:39.443Z,929.31
2017-03-02T15:34:07.761Z,929.3
2017-03-02T15:34:36.519Z,929.34
2017-03-02T15:35:04.641Z,929.43
2017-03-02T15:35:32.921Z,929.2
2017-03-02T15:36:01.232Z,929.17
2017-03-02T15:36:29.529Z,929.2
2017-03-02T15:36:57.833Z,929.29
2017-03-02T15:37:25.968Z,929.35
2017-03-02T15:37:54.028Z,929.38
2017-03-02T15:38:22.150Z,929.36
2017-03-02T15:38:51.117Z,929.33
2017-03-02T15:39:19.287Z,929.32
2017-03-02T15:39:47.442Z,929.31
2017-03-02T15:40:15.634Z,929.4
2017-03-02T15:40:43.818Z,929.62
2017-03-02T15:41:12.021Z,929.67
2017-03-02T15:41:40.432Z,929.67
2017-03-02T15:42:08.583Z,929.17
2017-03-02T15:42:36.949Z,929.23
2017-03-02T15:43:05.211Z,929.22
2017-03-02T15:43:33.263Z,929.32
2017-03-02T15:44:01.337Z,929.37
2017-03-02T15:44:29.649Z,929.43
2017-03-02T15:44:57.799Z,929.36
2017-03-02T15:45:26.007Z,929.35
2017-03-02T15:45:54.101Z,929.34
2017-03-02T15:46:22.243Z,929.33
2017-03-02T15:46:50.323Z,929.46
2017-03-02T15:47:18.651Z,929.41
2017-03-02T15:47:46.967Z,929.4
2017-03-02T15:48:15.228Z,929.4
2017-03-02T15:48:43.477Z,929.31
2017-03-02T15:49:11.643Z,929.45
2017-03-02T15:49:39.916Z,929.49
2017-03-02T15:50:08.097Z,929.34
2017-03-02T15:50:36.369Z,929.36
2017-03-02T15:51:04.637Z,929.24
2017-03-02T15:51:33.648Z,929.32
2017-03-02T15:52:01.567Z,929.35
2017-03-02T15:52:29.829Z,929.31
2017-03-02T15:52:57.878Z,929.31
2017-03-02T15:53:26.037Z,929.36
2017-03-02T15:53:54.296Z,928.9
2017-03-02T15:54:22.456Z,928.88
2017-03-02T15:54:50.684Z,928.88
2017-03-02T15:55:19.013Z,928.94
2017-03-02T15:55:47.297Z,929.17
2017-03-02T15:56:15.555Z,929.6
2017-03-02T15:56:43.668Z,929.62
2017-03-02T15:57:11.868Z,929.42
2017-03-02T15:57:40.235Z,929.59
2017-03-02T15:58:08.320Z,929.53
2017-03-02T15:58:36.453Z,929.54
2017-03-02T15:59:04.632Z,929.55
2017-03-02T15:59:33.075Z,929.63
2017-03-02T16:00:01.298Z,929.61
2017-03-02T16:00:29.541Z,928.96
2017-03-02T16:00:57.576Z,929.08
2017-03-02T16:01:25.803Z,929.38
2017-03-02T16:01:53.947Z,928.99
2017-03-02T16:02:22.152Z,928.83
2017-03-02T16:02:50.556Z,928.89
2017-03-02T16:03:18.656Z,928.8
2017-03-02T16:03:46.876Z,928.87